KJCA

Jackson County Airport

Jefferson, Georgia, USA
METAR KJCA 212015Z AUTO 21006KT 10SM CLR 20/06 A3017 RMK AO2
Observed Flight Rules
Jan-21 @ 20:15 UTC (15 minutes ago) Visual Flight Rules
Wind Visibility Clouds
210° at 6 knots 10 miles
  • Clear skies
Temperatures Readings
Current 20°C / 68°F
Dewpoint 6°C / 43°F
Humidity 40%
Altimeter 30.17" Hg
Pressure 1022 hPa
Elevation 290
METAR KJCA 212015Z AUTO 21006KT 10SM CLR 20/06 A3017 RMK AO2
Observed Flight Rules
Jan-21 @ 20:15 UTC
(15 minutes ago)
VFR
Wind Visibility
210° at 6 knots 10 miles
Clouds
  • Clear skies
Temperature Dewpoint
20°C / 68°F 6°C / 43°F
Humidity Altimeter Pressure
40% 30.17" Hg 1022 hPa